createdAt,value
2022-11-05T00:11:18.386Z,96789.54401383216
2022-11-05T00:25:14.923Z,96795.16726727286
2022-11-05T00:27:16.489Z,96801.66418188982
2022-11-05T00:31:17.345Z,96811.99521415935
2022-11-05T00:34:17.690Z,96818.8395900708
2022-11-05T00:37:17.415Z,96825.09236910967
2022-11-05T00:41:16.461Z,96831.69661333052
2022-11-05T00:45:21.524Z,96836.89944626855
2022-11-05T00:51:16.672Z,96840.51186851283
2022-11-05T00:54:16.921Z,96847.1697551446
2022-11-05T00:57:17.070Z,96849.20818337404
2022-11-05T01:01:16.988Z,96834.35165716527
2022-11-05T01:04:17.229Z,96825.71521480949
2022-11-05T01:07:17.051Z,96805.00129116073
2022-11-05T01:11:33.927Z,96798.2003233774
2022-11-05T01:14:16.914Z,96797.06175145315
2022-11-05T01:17:17.313Z,96798.04844189617
2022-11-05T01:21:16.003Z,96804.59531720422
2022-11-05T01:24:16.279Z,96803.87657036146
2022-11-05T01:27:17.110Z,96806.21619048005
2022-11-05T01:31:16.678Z,96806.10951548579
2022-11-05T01:34:17.155Z,96813.23462413317
2022-11-05T01:37:17.068Z,96818.63322537512
2022-11-05T01:41:16.313Z,96816.75354999673
2022-11-05T01:45:23.988Z,96808.66134094544
2022-11-05T01:47:27.105Z,96800.78749079676
2022-11-05T01:51:21.182Z,96800.45890453791
2022-11-05T01:54:21.142Z,96798.92208375486
2022-11-05T01:57:17.082Z,96796.77391421578
2022-11-05T02:01:17.639Z,96796.0680711021
2022-11-05T02:04:24.260Z,96787.55213768726
2022-11-05T02:07:17.885Z,96782.37703575085
2022-11-05T02:11:18.754Z,96787.9607868179
2022-11-05T02:14:16.845Z,96777.32921945908
2022-11-05T02:17:23.255Z,96779.46143136505
2022-11-05T02:31:25.406Z,96787.34649980842
2022-11-05T02:34:26.695Z,96789.64932295716
2022-11-05T02:37:24.260Z,96780.47535951991
2022-11-05T02:41:25.316Z,96771.08620196568
2022-11-05T02:44:25.820Z,96777.6978674887
2022-11-05T02:47:28.716Z,96779.59684709986
2022-11-05T02:51:24.894Z,96776.13352543235
2022-11-05T02:54:22.817Z,96762.90109538236
2022-11-05T02:57:20.004Z,96752.63276329965
2022-11-05T03:01:18.447Z,96752.03932467394
2022-11-05T03:04:20.991Z,96749.67210848
2022-11-05T03:07:34.516Z,96757.05376700382
2022-11-05T03:11:19.996Z,96761.05082535392
2022-11-05T03:14:24.225Z,96769.8392880204
2022-11-05T03:17:26.762Z,96770.83798969563
2022-11-05T03:21:21.018Z,96776.92401508213
2022-11-05T03:24:21.952Z,96786.4050040608
2022-11-05T03:27:19.481Z,96795.06745153198
2022-11-05T03:31:16.808Z,96797.17360967227
2022-11-05T03:34:19.677Z,96799.55029522997
2022-11-05T03:37:19.367Z,96794.01971528768
2022-11-05T03:41:18.469Z,96788.6183228869
2022-11-05T03:44:21.228Z,96790.61889350427
2022-11-05T03:47:20.544Z,96795.28520290105
2022-11-05T03:51:22.752Z,96797.93850490828
2022-11-05T03:54:17.219Z,96793.06755740842
2022-11-05T03:57:22.987Z,96783.28638864668
2022-11-05T04:01:16.374Z,96787.50674782202
2022-11-05T04:04:16.868Z,96783.80023667707
2022-11-05T04:31:16.672Z,96780.4260411341
2022-11-05T04:34:20.237Z,96779.73937895289
2022-11-05T04:37:17.140Z,96770.88730680985
2022-11-05T04:41:17.280Z,96767.84817945019
2022-11-05T04:44:17.014Z,96768.68488060574
2022-11-05T04:47:16.864Z,96763.04776241186
2022-11-05T04:51:16.464Z,96760.16328487605
2022-11-05T04:54:17.110Z,96767.90395040081
2022-11-05T04:57:17.240Z,96770.09417835399
2022-11-05T05:01:18.539Z,96771.34333044545
2022-11-05T05:04:16.969Z,96772.7677649096
2022-11-05T05:07:16.963Z,96781.60506391268
2022-11-05T05:11:18.874Z,96794.17945955187
2022-11-05T05:14:16.716Z,96800.42425666454
2022-11-05T05:17:16.889Z,96807.03066928656
2022-11-05T05:21:48.883Z,96818.33939280445
2022-11-05T05:24:19.300Z,96820.47405425536
2022-11-05T05:27:16.955Z,96826.36703547466
2022-11-05T05:31:16.287Z,96832.5923796386
2022-11-05T05:34:16.787Z,96838.07740430556
2022-11-05T05:37:17.971Z,96836.32819723731
2022-11-05T05:41:17.082Z,96837.5095868328
2022-11-05T05:44:16.992Z,96839.22615703517
2022-11-05T05:47:16.548Z,96855.74868716794
2022-11-05T05:51:17.036Z,96856.54180164041
2022-11-05T05:54:16.611Z,96861.08756886575
2022-11-05T05:57:17.018Z,96856.22572621655
2022-11-05T06:01:21.196Z,96852.18005454678
2022-11-05T06:04:18.715Z,96847.97441870681
2022-11-05T06:07:18.458Z,96860.93398000808
2022-11-05T06:11:16.469Z,96865.38627582118
2022-11-05T06:14:17.129Z,96870.20771512142
2022-11-05T06:17:16.596Z,96858.949167771
2022-11-05T06:21:16.959Z,96857.22680276149
2022-11-05T06:24:16.574Z,96866.3251952852
2022-11-05T06:27:16.240Z,96870.38650544292
2022-11-05T06:31:16.556Z,96879.21804085966
2022-11-05T06:34:16.615Z,96887.84460371055
2022-11-05T06:37:16.770Z,96893.57763720084
2022-11-05T06:41:17.461Z,96910.4926856117
2022-11-05T06:44:18.536Z,96911.34913152992
2022-11-05T06:47:18.234Z,96917.8253144727
2022-11-05T06:51:15.798Z,96921.06573510433
2022-11-05T06:54:16.202Z,96931.18435857948
2022-11-05T06:57:16.759Z,96935.29005239246
2022-11-05T07:01:17.289Z,96942.019566998
2022-11-05T07:04:16.893Z,96940.8636128452
2022-11-05T07:07:16.717Z,96940.5670557516
2022-11-05T07:11:15.957Z,96936.92244267308
2022-11-05T07:14:16.814Z,96950.32511338315
2022-11-05T07:17:17.099Z,96951.12898994921
2022-11-05T07:21:16.715Z,96947.84681044269
2022-11-05T07:24:17.244Z,96951.2826760218
2022-11-05T07:27:17.472Z,96958.0771141892
2022-11-05T07:31:22.404Z,96961.07570996809
2022-11-05T07:34:17.761Z,96966.99324299919
2022-11-05T07:37:17.551Z,96968.01730676275
2022-11-05T07:41:16.108Z,96962.4059419471
2022-11-05T07:44:17.687Z,96955.01085133608
2022-11-05T07:47:16.163Z,96948.58186581172
2022-11-05T07:51:16.621Z,96949.48326712551
2022-11-05T07:54:16.716Z,96945.10188420217
2022-11-05T07:57:16.473Z,96938.30302877646
2022-11-05T08:01:17.140Z,96936.89204932762
2022-11-05T08:04:17.108Z,96936.20476687473
2022-11-05T08:07:18.328Z,96938.67118238616
2022-11-05T08:11:16.536Z,96937.9039566283
2022-11-05T08:14:17.395Z,96937.43628331773
2022-11-05T08:17:18.534Z,96933.12097133222
2022-11-05T08:21:16.451Z,96932.97555022269
2022-11-05T08:24:16.829Z,96934.82326675102
2022-11-05T08:27:16.959Z,96936.8643186912
2022-11-05T08:31:18.820Z,96927.69007388144
2022-11-05T08:34:16.939Z,96934.52849776181
2022-11-05T08:37:17.409Z,96934.52910885891
2022-11-05T08:41:16.367Z,96939.84458272645
2022-11-05T08:44:17.283Z,96942.20290633498
2022-11-05T08:47:16.312Z,96943.63594439912
2022-11-05T08:51:16.781Z,96941.51909959015
2022-11-05T08:54:17.050Z,96948.83820570415
2022-11-05T08:57:17.002Z,96953.34676300116
2022-11-05T09:01:20.115Z,96937.65814487274
2022-11-05T09:04:16.366Z,96943.75647933915
2022-11-05T09:07:16.481Z,96945.18311065229
2022-11-05T09:11:17.358Z,96955.25690656045
2022-11-05T09:14:17.567Z,96958.73438882393
2022-11-05T09:17:18.697Z,96953.09108778747
2022-11-05T09:21:16.540Z,96961.88470849108
2022-11-05T09:24:16.715Z,96971.96728115987
2022-11-05T09:27:16.211Z,96979.1422200983
2022-11-05T09:31:15.908Z,96985.91430295847
2022-11-05T09:34:16.858Z,96987.69388014422
2022-11-05T09:37:16.434Z,96991.91091855246
2022-11-05T09:41:24.253Z,97001.48654139653
2022-11-05T09:44:20.653Z,96997.97713769304
2022-11-05T09:47:21.013Z,96999.1789103492
2022-11-05T09:51:23.672Z,96999.25749024369
2022-11-05T09:54:31.218Z,96998.35763469354
2022-11-05T09:57:23.112Z,97007.47973704507
2022-11-05T10:01:21.480Z,97006.28593123189
2022-11-05T10:04:21.494Z,97005.7754407766
2022-11-05T10:07:22.931Z,97010.16483020525
2022-11-05T10:11:24.675Z,96998.13027056545
2022-11-05T10:14:22.799Z,97002.24223128532
2022-11-05T10:17:21.071Z,97005.17513121892
2022-11-05T10:21:37.814Z,97011.00029525987
2022-11-05T10:24:19.235Z,97006.41881656172
2022-11-05T10:27:21.308Z,97004.20241614534
2022-11-05T10:31:22.714Z,97000.42222048435
2022-11-05T10:34:18.393Z,97002.22724867721
2022-11-05T10:37:19.654Z,97008.34446584743
2022-11-05T10:41:35.415Z,97005.06210091339
2022-11-05T10:44:27.941Z,97009.59628305334
2022-11-05T10:47:45.240Z,97007.71067208081
2022-11-05T10:51:18.055Z,97018.57088098425
2022-11-05T10:54:21.230Z,97012.9041600297
2022-11-05T10:57:35.994Z,97010.03678657982
2022-11-05T11:01:17.269Z,97012.24188738436
2022-11-05T11:04:25.422Z,97004.44329671722
2022-11-05T11:07:43.796Z,96994.8930859432
2022-11-05T11:11:29.958Z,96997.42026503244
2022-11-05T11:14:19.888Z,97002.70505841837
2022-11-05T11:17:26.242Z,97003.79461373501
2022-11-05T11:21:18.177Z,97003.92823895285
2022-11-05T11:24:20.612Z,97008.00995222839
2022-11-05T11:27:21.290Z,97002.64479662834
2022-11-05T11:31:20.775Z,97009.23056319487
2022-11-05T11:34:44.251Z,97001.34702868269
2022-11-05T11:37:21.988Z,96996.22486107868
2022-11-05T11:41:24.692Z,96990.64320131372
2022-11-05T11:44:19.223Z,96987.17550685885
2022-11-05T11:47:20.395Z,96993.3762754847
2022-11-05T11:51:19.765Z,96992.49249718756
2022-11-05T11:54:19.695Z,96991.27901986112
2022-11-05T11:57:24.664Z,96996.90583850132
2022-11-05T12:02:23.739Z,96999.18540439404
2022-11-05T12:04:38.072Z,97000.5357354813
2022-11-05T12:07:27.593Z,97004.74244630587
2022-11-05T12:11:24.323Z,97001.90133370081
2022-11-05T12:14:26.473Z,96996.20187388969
2022-11-05T12:31:43.516Z,97000.75578197681
2022-11-05T12:34:31.997Z,97007.00186708884
2022-11-05T12:37:33.175Z,97013.20089300547
2022-11-05T12:41:23.931Z,97011.96199245926
2022-11-05T12:44:32.899Z,97016.87066314988
2022-11-05T12:47:34.706Z,97020.3714936519
2022-11-05T12:51:38.015Z,97015.24767963441
2022-11-05T12:54:27.883Z,97018.27325179083
2022-11-05T12:57:22.345Z,97015.41910770022
2022-11-05T13:01:21.262Z,97014.97252626662
2022-11-05T13:04:28.125Z,97021.40977707694
2022-11-05T13:07:23.428Z,97018.8666778011
2022-11-05T13:11:21.822Z,97015.2241910413
2022-11-05T13:14:27.091Z,97010.84047381762
2022-11-05T13:17:20.191Z,97013.56473188092
2022-11-05T13:21:28.184Z,97015.09459579707
2022-11-05T13:24:22.904Z,97016.87915946584
2022-11-05T13:27:41.302Z,97028.47008743175
2022-11-05T13:31:21.668Z,97030.66169945091
2022-11-05T13:34:16.984Z,97030.87437712669
2022-11-05T13:41:27.013Z,97037.85452896867
2022-11-05T13:44:56.117Z,97032.06291352866
2022-11-05T13:47:32.744Z,97032.18939876437
2022-11-05T13:51:53.183Z,97027.60603999841
2022-11-05T14:01:34.310Z,97027.51766935736
2022-11-05T14:04:35.725Z,97032.21766543064
2022-11-05T14:07:19.965Z,97036.01286119838
2022-11-05T14:11:21.267Z,97034.68007025898
2022-11-05T14:14:20.179Z,97035.48601746408
2022-11-05T14:17:27.341Z,97043.42145343608
2022-11-05T14:21:46.487Z,97045.97079822229
2022-11-05T14:24:26.293Z,97046.26798931367
2022-11-05T14:28:03.907Z,97054.05906779555
2022-11-05T14:32:07.131Z,97053.96709425742
2022-11-05T14:34:40.467Z,97051.51147330241
2022-11-05T14:37:25.635Z,97047.92897273008
2022-11-05T14:41:17.429Z,97049.82494143829
2022-11-05T14:44:16.844Z,97049.86635893949
2022-11-05T14:47:20.884Z,97057.48643854546
2022-11-05T14:51:25.682Z,97069.5803520911
2022-11-05T14:54:24.522Z,97075.9414113419
2022-11-05T14:58:01.505Z,97076.23672452295
2022-11-05T15:02:14.432Z,97077.79589495846
2022-11-05T15:04:25.118Z,97081.40466417791
2022-11-05T15:07:36.505Z,97084.33619080714
2022-11-05T15:11:22.234Z,97088.68619434554
2022-11-05T15:14:22.085Z,97096.993320188
2022-11-05T15:17:21.674Z,97097.87500869535
2022-11-05T15:21:18.866Z,97097.3211309965
2022-11-05T15:24:18.988Z,97104.7097818456
2022-11-05T15:27:30.176Z,97107.85656438662
2022-11-05T15:31:25.584Z,97109.59626989394
2022-11-05T15:34:21.903Z,97092.6305109383
2022-11-05T15:37:22.501Z,97110.59631662017
2022-11-05T15:41:19.968Z,97114.20212990465
2022-11-05T15:44:26.606Z,97114.44266748663
2022-11-05T15:47:20.464Z,97117.34732901951
2022-11-05T15:51:16.874Z,97122.88558956666
2022-11-05T15:54:30.828Z,97127.19988929808
2022-11-05T15:57:24.551Z,97135.95074464472
2022-11-05T16:01:21.767Z,97141.3067758875
2022-11-05T16:04:20.595Z,97143.7107024152
2022-11-05T16:07:18.292Z,97147.27139574326
2022-11-05T16:11:22.897Z,97152.37735461608
2022-11-05T16:14:19.595Z,97154.56722201618
2022-11-05T16:17:23.214Z,97158.87118765518
2022-11-05T16:21:27.036Z,97151.45496747861
2022-11-05T16:24:26.617Z,97159.08224136177
2022-11-05T16:27:21.140Z,97162.56500305967
2022-11-05T16:31:23.126Z,97167.95962951076
2022-11-05T16:34:29.119Z,97170.53778525059
2022-11-05T16:37:21.496Z,97180.06702763807
2022-11-05T16:41:20.189Z,97178.0713917581
2022-11-05T16:44:17.040Z,97188.74868283229
2022-11-05T16:47:17.866Z,97197.1055931207
2022-11-05T16:51:17.456Z,97198.80935617902
2022-11-05T16:54:17.363Z,97202.2586534764
2022-11-05T16:57:23.556Z,97205.22857615654
2022-11-05T17:01:19.233Z,97211.28779021598
2022-11-05T17:04:16.754Z,97217.38838410596
2022-11-05T17:07:17.587Z,97222.69069681331
2022-11-05T17:11:19.734Z,97227.79802394597
2022-11-05T17:14:16.845Z,97228.39538483968
2022-11-05T17:17:16.835Z,97230.07868853609
2022-11-05T17:21:17.335Z,97223.41043972566
2022-11-05T17:24:17.579Z,97228.17822683309
2022-11-05T17:27:16.898Z,97230.19115710924
2022-11-05T17:31:17.513Z,97238.21899203956
2022-11-05T17:34:16.937Z,97243.09595570728
2022-11-05T17:37:17.710Z,97245.01197380881
2022-11-05T17:41:19.188Z,97244.17980506449
2022-11-05T17:44:17.299Z,97259.58958665437
2022-11-05T17:47:17.010Z,97265.86917127689
2022-11-05T17:51:18.318Z,97262.06544820385
2022-11-05T17:54:16.520Z,97260.26523088635
2022-11-05T17:57:17.109Z,97260.20080456449
2022-11-05T18:01:25.582Z,97259.9863450078
2022-11-05T18:04:17.196Z,97268.2027184034
2022-11-05T18:07:17.858Z,97273.24017187642
2022-11-05T18:11:17.952Z,97281.58334737016
2022-11-05T18:14:22.803Z,97283.34001722343
2022-11-05T18:17:16.876Z,97291.17118636417
2022-11-05T18:21:16.483Z,97293.57154890674
2022-11-05T18:24:18.866Z,97303.57670404093
2022-11-05T18:27:19.735Z,97298.22837944784
2022-11-05T18:31:18.751Z,97307.61441650146
2022-11-05T18:34:16.969Z,97306.53970194604
2022-11-05T18:37:17.041Z,97307.60274293007
2022-11-05T18:41:18.357Z,97308.75037467263
2022-11-05T18:44:17.042Z,97304.90894232402
2022-11-05T18:47:17.421Z,97308.8529189073
2022-11-05T18:51:17.375Z,97307.1422551529
2022-11-05T18:54:17.046Z,97316.6792895822
2022-11-05T18:57:17.352Z,97324.84352190408
2022-11-05T19:01:18.272Z,97319.08009410158
2022-11-05T19:04:16.562Z,97323.19684712647
2022-11-05T19:07:16.283Z,97322.68966926086
2022-11-05T19:11:20.021Z,97324.2181950622
2022-11-05T19:14:17.031Z,97325.09740319428
2022-11-05T19:17:17.098Z,97332.78092231683
2022-11-05T19:21:20.281Z,97324.45016431414
2022-11-05T19:24:17.497Z,97337.75100178711
2022-11-05T19:27:17.743Z,97331.9424628312
2022-11-05T19:31:19.223Z,97342.52711244844
2022-11-05T19:34:17.467Z,97341.09355748809
2022-11-05T19:37:18.079Z,97341.33756221668
2022-11-05T19:41:18.771Z,97339.49732267772
2022-11-05T19:44:18.612Z,97354.6402272356
2022-11-05T19:47:18.687Z,97354.54843094021
2022-11-05T19:51:19.726Z,97349.29870858778
2022-11-05T19:54:17.355Z,97359.35064829094
2022-11-05T19:57:17.195Z,97378.3732688626
2022-11-05T20:01:18.571Z,97373.5085221765
2022-11-05T20:04:17.619Z,97382.3468532264
2022-11-05T20:07:17.191Z,97379.30237283073
2022-11-05T20:11:16.262Z,97375.04139933828
2022-11-05T20:14:17.697Z,97377.41201172108
2022-11-05T20:17:17.556Z,97377.02251288597
2022-11-05T20:21:16.878Z,97380.8343181976
2022-11-05T20:24:24.060Z,97393.31573070024
2022-11-05T20:27:17.245Z,97410.6900857578
2022-11-05T20:31:17.811Z,97403.41754861073
2022-11-05T20:34:17.507Z,97418.09057711551
2022-11-05T20:37:18.204Z,97417.22473580307
2022-11-05T20:41:17.299Z,97426.63205769712
2022-11-05T20:44:17.636Z,97433.39655615365
2022-11-05T20:47:17.022Z,97428.31476672394
2022-11-05T20:51:20.071Z,97445.40762988845
2022-11-05T20:54:18.175Z,97444.0291063389
2022-11-05T20:57:18.624Z,97447.39270428696
2022-11-05T21:01:33.227Z,97443.84634995673
2022-11-05T21:04:17.691Z,97442.67714530576
2022-11-05T21:07:17.529Z,97436.60276024039
2022-11-05T21:11:17.374Z,97437.92923927531
2022-11-05T21:14:17.242Z,97433.49901374774
2022-11-05T21:17:18.294Z,97435.27531997637
2022-11-05T21:21:18.586Z,97436.68211380992
2022-11-05T21:24:17.430Z,97445.53404736896
2022-11-05T21:27:17.303Z,97447.37380850648
2022-11-05T21:31:16.559Z,97448.37221155407
2022-11-05T21:34:17.914Z,97448.53503430777
2022-11-05T21:37:17.090Z,97448.32689038737
2022-11-05T21:41:16.777Z,97449.88083283397
2022-11-05T21:44:17.015Z,97452.60576868402
2022-11-05T21:47:16.952Z,97452.54948562007
2022-11-05T22:01:17.171Z,97452.26427720109
2022-11-05T22:04:17.136Z,97443.61597046575
2022-11-05T22:07:19.165Z,97449.24919351631
2022-11-05T22:11:16.009Z,97438.68459793978
2022-11-05T22:14:16.904Z,97435.19399424114
2022-11-05T22:17:17.032Z,97445.06245376614
2022-11-05T22:21:17.578Z,97448.3496222994
2022-11-05T22:24:18.181Z,97458.15078653074
2022-11-05T22:27:18.985Z,97456.25817394533
2022-11-05T22:31:16.913Z,97451.6515813141
2022-11-05T22:34:17.420Z,97446.64920352527
2022-11-05T22:37:16.842Z,97448.57566945553
2022-11-05T22:41:20.305Z,97453.50692274183
2022-11-05T22:44:17.613Z,97463.47922792762
2022-11-05T22:47:18.433Z,97456.58219815254
2022-11-05T22:51:18.545Z,97451.88108452217
2022-11-05T22:54:17.034Z,97453.35559900987
2022-11-05T22:57:16.582Z,97458.2823148824
2022-11-05T23:01:17.491Z,97453.62279886399
